Time;durP1;ratioP1;P1;durP2;ratioP2;P2;SDS_P1;SDS_P2;PMS_P1;PMS_P2;Temp;Humidity;BMP_temperature;BMP_pressure;BME280_temperature;BME280_humidity;BME280_pressure;Samples;Min_cycle;Max_cycle;Signal;HPM_P1;HPM_P2
2022/10/12 00:02:05;;;;;;;14.50;8.50;;;;;;;4.89;88.44;99400.86;102918;1310;22475;-69
2022/10/12 00:04:32;;;;;;;16.00;8.90;;;;;;;4.89;88.39;99403.88;102872;1310;137509;-74
2022/10/12 00:06:58;;;;;;;13.40;8.70;;;;;;;4.90;88.57;99404.05;102762;1313;22595;-73
2022/10/12 00:09:25;;;;;;;16.80;9.00;;;;;;;4.89;88.43;99400.94;102801;1310;137699;-74
2022/10/12 00:11:52;;;;;;;18.00;7.40;;;;;;;4.88;88.67;99404.16;102862;1310;22554;-72
2022/10/12 00:14:19;;;;;;;15.20;8.10;;;;;;;4.89;88.65;99400.02;102931;1310;24410;-71
2022/10/12 00:16:45;;;;;;;18.00;8.10;;;;;;;4.89;88.75;99399.44;102754;1310;137786;-69
2022/10/12 00:19:13;;;;;;;15.90;7.90;;;;;;;4.89;88.81;99401.27;102931;1304;22664;-74
2022/10/12 00:21:40;;;;;;;11.20;7.20;;;;;;;4.88;88.80;99399.69;102865;1310;137496;-68
2022/10/12 00:24:08;;;;;;;15.90;8.10;;;;;;;4.87;88.81;99404.89;102899;1288;25535;-71
2022/10/12 00:26:35;;;;;;;14.50;8.20;;;;;;;4.86;88.83;99409.12;102883;1310;22565;-70
2022/10/12 00:29:03;;;;;;;14.90;8.90;;;;;;;4.85;88.39;99407.72;102829;1310;137482;-72
2022/10/12 00:31:31;;;;;;;18.90;8.80;;;;;;;4.83;88.13;99410.27;103023;1310;24243;-70
2022/10/12 00:34:00;;;;;;;14.50;8.30;;;;;;;4.76;87.02;99407.27;102812;1310;137580;-68
2022/10/12 00:36:34;;;;;;;16.20;9.50;;;;;;;4.63;86.31;99408.98;102950;1294;25338;-69
2022/10/12 00:39:04;;;;;;;15.90;8.90;;;;;;;4.48;86.15;99408.98;102807;1305;139270;-73
2022/10/12 00:41:34;;;;;;;15.20;8.70;;;;;;;4.37;86.27;99408.45;102943;1310;25307;-69
2022/10/12 00:44:01;;;;;;;17.40;9.50;;;;;;;4.30;86.46;99409.70;103019;1310;22478;-75
2022/10/12 00:46:31;;;;;;;17.10;9.40;;;;;;;4.25;86.70;99411.69;102792;1285;137765;-72
2022/10/12 00:49:22;;;;;;;21.50;10.00;;;;;;;4.21;87.01;99411.15;102912;1310;22699;-71
2022/10/12 00:51:57;;;;;;;13.70;8.20;;;;;;;4.18;87.34;99415.26;102823;1297;137685;-72
2022/10/12 00:54:31;;;;;;;15.00;8.50;;;;;;;4.15;87.49;99410.94;102903;1286;22669;-70
2022/10/12 00:57:01;;;;;;;15.00;8.60;;;;;;;4.13;87.67;99407.74;102802;1302;137741;-71
2022/10/12 00:59:37;;;;;;;19.50;8.50;;;;;;;4.13;88.05;99405.95;102989;1303;24241;-70
2022/10/12 01:02:04;;;;;;;14.70;8.50;;;;;;;4.12;88.26;99407.60;102872;1310;22480;-74
2022/10/12 01:04:32;;;;;;;12.50;7.80;;;;;;;4.13;88.63;99407.30;102813;1310;137617;-68
2022/10/12 01:06:59;;;;;;;14.60;8.30;;;;;;;4.15;88.73;99406.28;102855;1310;25213;-69
2022/10/12 01:09:27;;;;;;;14.60;8.00;;;;;;;4.16;88.85;99407.21;102767;1302;138049;-70
2022/10/12 01:11:56;;;;;;;16.50;9.30;;;;;;;4.15;88.71;99405.80;102982;1310;22496;-71
2022/10/12 01:14:24;;;;;;;13.90;8.60;;;;;;;4.14;88.86;99409.18;102966;1310;24311;-72
2022/10/12 01:17:12;;;;;;;14.60;8.10;;;;;;;4.13;88.99;99404.98;102847;1295;137737;-70
2022/10/12 01:19:54;;;;;;;13.80;8.20;;;;;;;4.12;89.21;99398.83;102899;1310;22477;-71
2022/10/12 01:22:22;;;;;;;11.70;7.10;;;;;;;4.14;89.65;99399.85;102800;1310;137574;-70
2022/10/12 01:24:51;;;;;;;14.20;7.80;;;;;;;4.15;89.82;99397.02;102887;1310;22460;-74
2022/10/12 01:27:30;;;;;;;15.10;8.20;;;;;;;4.17;89.65;99394.64;102822;1301;138087;-71
2022/10/12 01:30:26;;;;;;;;;;;;;;;4.20;89.70;99394.55;102968;1298;22445;-68
2022/10/12 01:33:22;;;;;;;10.00;6.70;;;;;;;4.22;89.80;99392.31;102177;1316;124011;-74
2022/10/12 01:36:02;;;;;;;14.20;8.70;;;;;;;4.22;89.62;99394.26;102360;1295;25354;-69
2022/10/12 01:38:58;;;;;;;14.00;8.10;;;;;;;4.22;89.09;99395.73;102781;1310;22522;-69
2022/10/12 01:41:35;;;;;;;13.70;7.40;;;;;;;4.22;89.11;99396.66;102826;1301;22493;-68
2022/10/12 01:44:02;;;;;;;13.00;8.00;;;;;;;4.21;88.97;99392.82;102354;1306;22593;-70
2022/10/12 01:46:29;;;;;;;13.20;7.40;;;;;;;4.18;88.64;99399.92;102224;1317;137664;-70
2022/10/12 01:48:59;;;;;;;13.70;7.00;;;;;;;4.13;88.17;99402.02;102417;1317;22500;-68
2022/10/12 01:51:40;;;;;;;13.30;7.70;;;;;;;4.05;88.21;99400.23;102230;1302;138094;-69
2022/10/12 01:54:07;;;;;;;14.10;7.40;;;;;;;3.96;88.42;99403.73;102302;1295;22550;-70
2022/10/12 01:57:15;;;;;;;13.50;7.40;;;;;;;3.94;88.83;99404.73;102290;1300;22562;-69
2022/10/12 01:59:45;;;;;;;10.40;7.10;;;;;;;3.94;89.38;99401.00;101758;1321;22592;-70
2022/10/12 02:02:16;;;;;;;13.70;7.20;;;;;;;3.94;89.53;99401.98;101756;1322;24484;-69
2022/10/12 02:04:50;;;;;;;20.20;8.60;;;;;;;3.95;89.70;99401.00;101666;1310;137622;-70
2022/10/12 02:07:36;;;;;;;13.40;7.50;;;;;;;3.95;89.78;99400.83;101869;1312;22614;-70
2022/10/12 02:10:06;;;;;;;13.60;7.60;;;;;;;3.94;89.92;99402.68;102061;1318;137796;-68
2022/10/12 02:12:33;;;;;;;8.60;6.80;;;;;;;3.95;90.16;99402.27;102399;1293;25360;-68
2022/10/12 02:15:06;;;;;;;13.60;8.00;;;;;;;3.96;90.24;99405.20;102203;1296;137657;-69
2022/10/12 02:17:34;;;;;;;16.60;7.70;;;;;;;3.98;90.21;99408.55;102380;1300;25512;-72
2022/10/12 02:20:03;;;;;;;13.50;8.10;;;;;;;3.99;90.02;99404.71;102375;1317;22637;-69
2022/10/12 02:22:35;;;;;;;11.40;7.70;;;;;;;3.98;89.66;99406.78;102082;1318;138004;-71
2022/10/12 02:25:07;;;;;;;12.20;7.70;;;;;;;3.95;89.72;99408.20;102161;1295;22731;-68
2022/10/12 02:27:39;;;;;;;10.80;7.00;;;;;;;3.95;90.13;99411.41;102094;1318;137722;-72
2022/10/12 02:30:07;;;;;;;16.70;7.30;;;;;;;3.96;90.01;99411.83;102133;1318;22660;-70
2022/10/12 02:32:43;;;;;;;14.60;7.60;;;;;;;3.94;89.78;99408.72;102346;1316;24464;-72
2022/10/12 02:35:35;;;;;;;13.90;8.10;;;;;;;3.92;89.86;99405.80;102704;1309;137522;-72
2022/10/12 02:38:34;;;;;;;17.20;7.80;;;;;;;3.90;89.72;99407.36;102904;1312;24413;-72
2022/10/12 02:41:10;;;;;;;17.00;9.30;;;;;;;3.86;89.72;99402.64;101978;1319;137692;-72
2022/10/12 02:43:53;;;;;;;15.80;9.10;;;;;;;3.84;89.93;99404.67;102127;1306;25274;-69
2022/10/12 02:46:24;;;;;;;17.10;8.00;;;;;;;3.82;89.79;99406.67;102022;1312;137788;-72
2022/10/12 02:48:54;;;;;;;18.30;7.80;;;;;;;3.81;90.15;99406.41;102185;1319;24422;-70
2022/10/12 02:51:22;;;;;;;10.50;7.50;;;;;;;3.81;90.31;99407.45;102203;1311;138028;-69
2022/10/12 02:53:50;;;;;;;11.70;7.30;;;;;;;3.78;89.96;99407.95;102347;1295;22494;-70
2022/10/12 02:56:17;;;;;;;15.10;8.50;;;;;;;3.77;90.17;99407.79;102191;1296;25401;-69
2022/10/12 02:58:45;;;;;;;16.40;8.00;;;;;;;3.76;90.25;99408.23;102127;1319;137697;-71
2022/10/12 03:01:15;;;;;;;11.90;7.70;;;;;;;3.75;90.12;99409.62;102130;1304;22470;-74
2022/10/12 03:03:43;;;;;;;10.20;7.10;;;;;;;3.74;90.38;99407.52;102020;1303;137710;-72
2022/10/12 03:06:10;;;;;;;12.40;6.50;;;;;;;3.75;90.48;99408.77;102096;1300;23180;-70
2022/10/12 03:08:37;;;;;;;12.20;7.30;;;;;;;3.74;90.33;99411.30;102039;1322;25726;-74
2022/10/12 03:11:06;;;;;;;14.50;7.30;;;;;;;3.73;90.19;99411.95;102174;1303;137913;-72
2022/10/12 03:13:34;;;;;;;12.40;7.40;;;;;;;3.69;89.94;99409.44;102310;1320;25269;-71
2022/10/12 03:16:08;;;;;;;16.10;8.00;;;;;;;3.66;89.87;99407.31;102164;1319;137801;-70
2022/10/12 03:18:35;;;;;;;15.20;7.20;;;;;;;3.64;89.87;99408.60;102537;1305;25493;-73
2022/10/12 03:21:03;;;;;;;14.70;7.10;;;;;;;3.63;89.95;99410.14;102788;1303;138131;-75
2022/10/12 03:23:30;;;;;;;8.90;6.40;;;;;;;3.62;90.24;99408.27;102925;1291;22475;-69
2022/10/12 03:25:57;;;;;;;12.20;7.30;;;;;;;3.59;90.06;99408.52;102874;1295;22465;-69
2022/10/12 03:28:23;;;;;;;11.90;7.10;;;;;;;3.55;89.94;99411.86;102760;1313;137646;-72
2022/10/12 03:30:50;;;;;;;10.20;6.60;;;;;;;3.53;90.22;99415.72;102858;1304;23833;-74
2022/10/12 03:33:17;;;;;;;10.20;6.20;;;;;;;3.53;90.35;99419.09;102733;1289;137953;-70
2022/10/12 03:35:44;;;;;;;12.20;6.50;;;;;;;3.53;90.17;99419.14;102865;1311;24272;-74
2022/10/12 03:38:13;;;;;;;10.50;6.10;;;;;;;3.51;89.87;99420.07;102903;1303;25336;-73
2022/10/12 03:40:40;;;;;;;14.90;6.30;;;;;;;3.44;89.44;99416.73;102728;1311;137765;-69
2022/10/12 03:43:07;;;;;;;12.90;6.50;;;;;;;3.37;89.47;99417.13;102878;1293;22460;-73
2022/10/12 03:45:34;;;;;;;16.50;6.80;;;;;;;3.34;89.92;99417.73;102789;1313;138224;-75
2022/10/12 03:48:02;;;;;;;10.40;6.90;;;;;;;3.33;89.84;99416.61;102887;1304;22501;-69
2022/10/12 03:50:29;;;;;;;12.90;6.60;;;;;;;3.32;89.93;99418.27;102875;1295;25473;-70
2022/10/12 03:52:56;;;;;;;11.80;7.10;;;;;;;3.31;90.23;99417.13;102791;1291;138205;-74
2022/10/12 03:55:22;;;;;;;8.90;6.00;;;;;;;3.31;90.34;99419.35;102805;1310;22850;-71
2022/10/12 03:57:49;;;;;;;8.90;5.70;;;;;;;3.32;90.45;99419.58;102775;1310;137932;-71
2022/10/12 04:00:17;;;;;;;11.30;5.90;;;;;;;3.33;90.66;99420.65;102845;1310;22484;-68
2022/10/12 04:02:43;;;;;;;8.40;6.00;;;;;;;3.33;90.29;99418.73;102846;1285;24849;-75
2022/10/12 04:05:10;;;;;;;10.80;6.80;;;;;;;3.32;90.41;99422.56;102793;1313;137340;-73
2022/10/12 04:07:37;;;;;;;11.00;6.90;;;;;;;3.32;90.35;99419.50;102898;1295;22493;-74
2022/10/12 04:10:05;;;;;;;10.60;5.60;;;;;;;3.32;90.44;99417.98;102815;1313;137885;-74
2022/10/12 04:12:32;;;;;;;10.50;6.20;;;;;;;3.31;90.44;99420.57;102928;1304;24254;-71
2022/10/12 04:14:59;;;;;;;11.60;5.40;;;;;;;3.30;90.58;99417.84;102731;1295;138030;-73
2022/10/12 04:17:26;;;;;;;15.10;6.10;;;;;;;3.28;90.60;99418.05;103013;1303;22606;-70
2022/10/12 04:19:53;;;;;;;12.00;6.00;;;;;;;3.28;90.97;99423.98;102894;1310;22468;-74
2022/10/12 04:22:19;;;;;;;9.30;5.60;;;;;;;3.28;90.86;99420.87;102849;1310;137723;-71
2022/10/12 04:24:46;;;;;;;10.30;6.00;;;;;;;3.28;91.03;99425.05;102851;1310;22472;-74
2022/10/12 04:27:13;;;;;;;8.80;6.00;;;;;;;3.29;90.93;99428.27;102712;1296;137902;-74
2022/10/12 04:29:40;;;;;;;15.60;7.10;;;;;;;3.31;90.71;99428.51;102839;1301;22518;-72
2022/10/12 04:32:07;;;;;;;10.00;7.70;;;;;;;3.28;90.06;99429.86;102852;1312;25352;-68
2022/10/12 04:34:35;;;;;;;15.20;8.10;;;;;;;3.23;89.64;99431.13;102767;1307;138383;-72
2022/10/12 04:37:02;;;;;;;16.00;8.70;;;;;;;3.20;89.81;99433.41;102817;1310;25313;-73
2022/10/12 04:39:29;;;;;;;13.80;8.40;;;;;;;3.18;89.58;99434.05;102817;1310;137970;-69
2022/10/12 04:41:56;;;;;;;13.00;7.60;;;;;;;3.16;89.47;99438.44;102833;1311;24427;-73
2022/10/12 04:44:23;;;;;;;17.00;9.00;;;;;;;3.14;89.44;99441.52;102869;1298;22530;-74
2022/10/12 04:46:49;;;;;;;11.90;7.00;;;;;;;3.13;89.54;99440.91;102790;1313;137855;-69
2022/10/12 04:49:16;;;;;;;12.70;6.50;;;;;;;3.11;89.47;99439.67;102848;1313;22834;-70
2022/10/12 04:51:43;;;;;;;10.40;6.40;;;;;;;3.10;89.32;99437.41;102751;1303;137845;-74
2022/10/12 04:54:10;;;;;;;13.90;8.10;;;;;;;3.09;89.25;99436.77;102895;1310;22480;-72
2022/10/12 04:56:37;;;;;;;12.70;6.80;;;;;;;3.05;89.32;99434.57;102857;1293;25288;-71
2022/10/12 04:59:04;;;;;;;14.70;7.20;;;;;;;3.02;89.25;99436.77;102790;1289;137821;-70
2022/10/12 05:01:31;;;;;;;11.80;6.80;;;;;;;3.00;89.16;99436.82;102886;1296;22926;-69
2022/10/12 05:03:59;;;;;;;16.10;7.60;;;;;;;2.99;89.32;99434.96;102808;1306;137733;-69
2022/10/12 05:06:26;;;;;;;11.50;7.40;;;;;;;2.97;89.59;99439.77;102861;1303;22607;-69
2022/10/12 05:08:52;;;;;;;19.00;8.80;;;;;;;2.96;89.45;99439.92;102825;1312;137893;-71
2022/10/12 05:11:19;;;;;;;19.10;8.20;;;;;;;2.97;89.68;99443.94;102933;1294;22511;-70
2022/10/12 05:13:46;;;;;;;16.00;8.60;;;;;;;2.97;89.84;99446.77;102615;1300;25385;-70
2022/10/12 05:16:13;;;;;;;17.20;8.70;;;;;;;2.97;89.64;99445.33;102811;1310;137773;-72
2022/10/12 05:18:40;;;;;;;17.80;9.90;;;;;;;2.98;89.41;99445.61;102866;1293;22549;-70
2022/10/12 05:21:07;;;;;;;15.50;10.40;;;;;;;2.99;89.75;99449.96;102800;1310;138116;-68
2022/10/12 05:23:34;;;;;;;19.40;9.60;;;;;;;3.00;89.56;99452.59;102801;1312;22483;-74
2022/10/12 05:26:00;;;;;;;14.90;9.20;;;;;;;3.00;89.61;99456.52;102819;1313;22483;-69
2022/10/12 05:28:27;;;;;;;20.90;10.30;;;;;;;3.02;89.67;99457.59;102743;1294;137829;-69
2022/10/12 05:30:54;;;;;;;23.10;10.10;;;;;;;3.03;89.76;99458.66;102901;1313;22480;-74
2022/10/12 05:33:21;;;;;;;25.10;11.40;;;;;;;3.05;89.78;99459.53;102737;1311;138109;-73
2022/10/12 05:35:48;;;;;;;18.90;11.50;;;;;;;3.08;90.19;99461.75;102942;1311;22484;-70
2022/10/12 05:38:15;;;;;;;25.00;11.60;;;;;;;3.10;90.11;99452.72;102823;1293;22451;-70
2022/10/12 05:40:42;;;;;;;20.10;10.70;;;;;;;3.13;90.02;99459.34;102749;1309;137883;-75
2022/10/12 05:43:09;;;;;;;18.30;11.10;;;;;;;3.15;89.97;99454.67;102807;1299;22484;-70
2022/10/12 05:45:36;;;;;;;18.90;10.40;;;;;;;3.18;90.21;99455.77;102753;1301;137983;-71
2022/10/12 05:48:03;;;;;;;17.40;10.20;;;;;;;3.23;90.14;99459.69;102852;1312;22481;-71
2022/10/12 05:50:30;;;;;;;23.20;8.60;;;;;;;3.27;90.31;99457.30;102852;1313;24611;-72
2022/10/12 05:52:56;;;;;;;11.10;6.80;;;;;;;3.26;89.69;99454.58;102779;1302;137778;-70
2022/10/12 05:55:23;;;;;;;12.10;5.70;;;;;;;3.19;89.05;99454.52;102881;1310;24413;-70
2022/10/12 05:57:50;;;;;;;13.40;6.60;;;;;;;3.10;88.88;99453.07;102802;1310;137777;-69
2022/10/12 06:00:18;;;;;;;18.30;6.80;;;;;;;3.05;89.28;99454.72;102932;1310;22533;-69
2022/10/12 06:02:44;;;;;;;13.10;6.40;;;;;;;3.07;89.86;99456.30;102918;1305;25387;-68
2022/10/12 06:05:11;;;;;;;10.20;6.00;;;;;;;3.08;89.88;99464.27;102764;1302;137566;-73
2022/10/12 06:07:38;;;;;;;16.60;7.70;;;;;;;3.27;93.20;99464.45;102848;1298;22466;-69
2022/10/12 06:10:06;;;;;;;11.50;7.20;;;;;;;3.46;91.68;99465.30;102772;1313;137709;-70
2022/10/12 06:12:33;;;;;;;12.40;7.10;;;;;;;3.54;90.38;99467.86;102781;1313;22614;-77
2022/10/12 06:15:00;;;;;;;12.50;6.70;;;;;;;3.59;90.18;99464.61;102714;1310;137900;-74
2022/10/12 06:17:27;;;;;;;12.20;7.00;;;;;;;3.66;90.53;99462.72;102885;1288;22513;-71
2022/10/12 06:19:53;;;;;;;19.60;7.90;;;;;;;3.76;90.84;99461.02;102881;1310;22499;-75
2022/10/12 06:22:20;;;;;;;9.40;6.10;;;;;;;3.95;91.77;99454.32;102800;1295;137854;-72
2022/10/12 06:24:47;;;;;;;12.30;6.60;;;;;;;4.10;91.27;99454.05;102884;1304;24336;-74
2022/10/12 06:27:16;;;;;;;12.50;7.00;;;;;;;4.23;91.08;99461.52;102816;1305;137815;-73
2022/10/12 06:29:43;;;;;;;11.50;7.10;;;;;;;4.34;90.96;99462.35;102856;1289;22483;-71
2022/10/12 06:32:10;;;;;;;14.90;7.70;;;;;;;4.46;91.14;99465.16;102857;1312;22464;-72
2022/10/12 06:34:36;;;;;;;20.90;7.90;;;;;;;4.56;90.64;99463.43;102789;1310;137697;-76
2022/10/12 06:37:03;;;;;;;11.70;7.00;;;;;;;4.64;90.58;99465.72;102881;1296;22462;-73
2022/10/12 06:39:30;;;;;;;14.70;8.10;;;;;;;4.73;90.68;99461.64;102833;1289;137854;-69
2022/10/12 06:41:58;;;;;;;15.40;8.50;;;;;;;4.82;90.64;99466.39;103039;1310;23882;-69
2022/10/12 06:44:28;;;;;;;18.60;8.60;;;;;;;4.89;90.46;99462.73;103125;1300;22515;-69
2022/10/12 06:46:56;;;;;;;15.80;7.90;;;;;;;4.94;89.81;99466.88;102855;1313;137910;-69
2022/10/12 06:49:24;;;;;;;16.20;8.10;;;;;;;5.00;89.91;99470.33;103124;1290;22475;-69
2022/10/12 06:51:52;;;;;;;15.60;7.40;;;;;;;5.07;89.83;99468.94;103115;1304;137648;-70
2022/10/12 06:54:18;;;;;;;14.70;7.30;;;;;;;5.15;89.95;99471.85;102865;1309;25121;-69
2022/10/12 06:56:45;;;;;;;13.30;7.30;;;;;;;5.25;89.81;99474.81;102950;1311;25479;-69
2022/10/12 06:59:12;;;;;;;17.60;9.10;;;;;;;5.34;89.83;99470.50;102943;1301;137758;-70
2022/10/12 07:01:39;;;;;;;12.80;7.70;;;;;;;5.45;89.80;99472.64;103064;1310;22475;-69
2022/10/12 07:04:06;;;;;;;16.90;8.60;;;;;;;5.56;89.63;99470.52;102907;1310;138155;-69
2022/10/12 07:06:33;;;;;;;16.50;7.30;;;;;;;5.69;89.72;99469.67;102998;1313;22575;-70
2022/10/12 07:09:00;;;;;;;16.20;8.40;;;;;;;5.74;88.99;99475.03;102911;1313;138215;-71
2022/10/12 07:11:27;;;;;;;14.90;8.60;;;;;;;5.79;88.83;99475.33;102946;1313;22852;-69
2022/10/12 07:13:56;;;;;;;18.70;8.20;;;;;;;5.86;89.07;99476.28;103050;1303;22615;-71
2022/10/12 07:16:23;;;;;;;14.40;7.90;;;;;;;5.96;89.04;99476.55;102943;1306;137721;-71
2022/10/12 07:18:50;;;;;;;21.00;8.90;;;;;;;6.07;89.24;99479.14;102984;1310;22563;-70
2022/10/12 07:21:17;;;;;;;18.30;8.50;;;;;;;6.17;88.97;99473.77;103113;1297;138088;-70
2022/10/12 07:23:44;;;;;;;24.10;10.50;;;;;;;6.25;89.00;99472.48;103111;1310;22470;-70
2022/10/12 07:26:11;;;;;;;14.30;8.20;;;;;;;6.35;89.02;99473.33;103060;1311;24363;-71
2022/10/12 07:28:37;;;;;;;13.10;7.40;;;;;;;6.43;89.11;99476.73;102835;1310;137945;-70
2022/10/12 07:31:06;;;;;;;17.30;8.60;;;;;;;6.53;89.02;99472.75;102955;1304;22536;-70
2022/10/12 07:33:35;;;;;;;16.30;8.80;;;;;;;6.61;88.70;99472.21;103089;1313;137934;-70
2022/10/12 07:36:02;;;;;;;16.60;9.20;;;;;;;6.69;88.69;99467.58;103345;1296;25530;-70
2022/10/12 07:38:29;;;;;;;16.20;9.00;;;;;;;6.75;88.45;99470.21;103069;1311;22475;-76
2022/10/12 07:41:00;;;;;;;15.50;8.80;;;;;;;6.82;88.46;99462.02;102926;1284;137835;-75
2022/10/12 07:43:28;;;;;;;14.00;9.10;;;;;;;6.89;88.26;99463.20;103988;1290;25327;-74
2022/10/12 07:45:55;;;;;;;17.40;8.70;;;;;;;6.99;88.59;99460.70;102775;1310;137711;-70
2022/10/12 07:48:22;;;;;;;16.40;8.20;;;;;;;7.12;88.18;99466.08;102875;1310;22684;-73
2022/10/12 07:50:49;;;;;;;16.60;8.30;;;;;;;7.22;87.88;99462.23;102882;1311;25546;-71
2022/10/12 07:53:16;;;;;;;17.00;8.50;;;;;;;7.32;87.76;99465.08;102793;1313;24448;-71
2022/10/12 07:55:43;;;;;;;16.00;9.10;;;;;;;7.40;87.78;99460.46;102711;1301;25399;-72
2022/10/12 07:58:11;;;;;;;19.00;9.50;;;;;;;7.50;88.03;99462.27;102816;1310;137892;-70
2022/10/12 08:00:38;;;;;;;20.20;9.10;;;;;;;7.57;87.80;99462.14;102893;1307;25227;-70
2022/10/12 08:03:06;;;;;;;22.70;9.10;;;;;;;7.65;87.88;99460.98;102923;1286;138074;-75
2022/10/12 08:05:33;;;;;;;17.40;8.50;;;;;;;7.74;87.46;99459.80;102843;1310;22526;-70
2022/10/12 08:08:00;;;;;;;13.60;8.30;;;;;;;7.83;87.35;99457.80;102884;1313;24366;-71
2022/10/12 08:10:27;;;;;;;16.40;9.40;;;;;;;7.92;87.52;99459.01;102848;1313;138015;-71
2022/10/12 08:12:54;;;;;;;15.90;8.50;;;;;;;8.02;87.40;99458.66;102834;1311;25308;-70
2022/10/12 08:15:21;;;;;;;15.00;8.00;;;;;;;8.13;87.40;99448.21;102817;1298;140926;-70
2022/10/12 08:17:48;;;;;;;18.50;8.50;;;;;;;8.25;87.63;99450.41;102951;1289;25398;-74
2022/10/12 08:20:15;;;;;;;22.40;8.50;;;;;;;8.38;87.50;99453.20;102931;1310;22479;-71
2022/10/12 08:22:42;;;;;;;21.70;8.60;;;;;;;8.52;87.52;99453.16;102809;1310;137990;-74
2022/10/12 08:25:09;;;;;;;28.00;9.90;;;;;;;8.64;87.00;99454.80;102993;1288;22472;-74
2022/10/12 08:27:37;;;;;;;24.00;9.20;;;;;;;8.74;86.52;99456.20;102835;1294;138102;-72
2022/10/12 08:30:05;;;;;;;22.30;9.10;;;;;;;8.83;85.95;99447.50;102925;1285;25413;-71
2022/10/12 08:32:32;;;;;;;15.60;8.50;;;;;;;8.92;85.62;99447.20;102868;1313;22476;-73
2022/10/12 08:34:59;;;;;;;21.30;9.30;;;;;;;9.02;85.27;99445.86;102782;1312;138227;-71
2022/10/12 08:37:26;;;;;;;17.40;8.00;;;;;;;9.13;85.17;99443.96;102963;1310;22600;-74
2022/10/12 08:39:52;;;;;;;16.40;6.80;;;;;;;9.25;84.95;99443.02;102941;1309;138015;-72
2022/10/12 08:42:49;;;;;;;16.40;7.80;;;;;;;9.40;84.99;99442.40;102973;1302;24211;-73
2022/10/12 08:45:47;;;;;;;16.90;6.90;;;;;;;9.58;84.41;99446.28;102809;1310;138459;-71
2022/10/12 08:48:45;;;;;;;12.50;6.30;;;;;;;9.70;83.48;99446.33;102889;1293;22609;-72
2022/10/12 08:51:21;;;;;;;12.70;5.20;;;;;;;9.81;83.13;99446.45;102770;1289;138095;-70
2022/10/12 08:54:11;;;;;;;10.40;5.70;;;;;;;9.89;82.52;99444.23;102831;1299;26639;-69
2022/10/12 08:56:40;;;;;;;10.80;6.00;;;;;;;9.99;81.83;99446.45;102851;1306;22461;-70
2022/10/12 08:59:13;;;;;;;11.90;5.10;;;;;;;10.06;81.40;99450.98;102881;1298;137880;-71
2022/10/12 09:01:56;;;;;;;9.90;5.10;;;;;;;10.13;80.78;99447.64;102933;1303;22495;-70
2022/10/12 09:04:44;;;;;;;13.50;6.00;;;;;;;10.22;80.56;99450.64;102745;1313;137936;-72
2022/10/12 09:07:25;;;;;;;11.10;5.10;;;;;;;10.35;80.11;99450.52;102917;1310;24222;-70
2022/10/12 09:10:15;;;;;;;13.20;5.80;;;;;;;10.45;79.68;99451.41;102804;1304;138029;-70
2022/10/12 09:13:07;;;;;;;9.30;5.50;;;;;;;10.58;79.13;99454.52;102196;1318;22485;-71
2022/10/12 09:15:38;;;;;;;11.00;5.70;;;;;;;10.68;78.33;99455.11;102145;1312;138564;-69
2022/10/12 09:18:19;;;;;;;14.90;6.00;;;;;;;10.76;77.66;99448.30;102220;1317;22886;-70
2022/10/12 09:20:49;;;;;;;13.00;6.40;;;;;;;10.83;77.15;99447.98;102240;1319;22481;-70
2022/10/12 09:23:43;;;;;;;21.20;7.10;;;;;;;10.88;76.86;99443.13;102221;1297;24371;-71
2022/10/12 09:26:24;;;;;;;12.20;5.90;;;;;;;10.98;76.62;99444.61;102226;1311;25251;-70
2022/10/12 09:28:56;;;;;;;13.20;6.30;;;;;;;11.09;76.80;99445.84;102109;1318;138199;-70
2022/10/12 09:31:48;;;;;;;12.40;6.10;;;;;;;11.18;75.63;99446.50;102232;1290;25458;-70
2022/10/12 09:34:14;;;;;;;14.10;5.90;;;;;;;11.30;75.24;99443.20;102053;1299;138269;-70
2022/10/12 09:36:42;;;;;;;14.70;5.80;;;;;;;11.41;75.38;99442.51;102259;1310;22491;-69
2022/10/12 09:39:18;;;;;;;13.80;6.40;;;;;;;11.54;74.73;99440.05;102185;1317;138321;-71
2022/10/12 09:41:47;;;;;;;9.70;5.60;;;;;;;11.66;73.60;99440.42;102275;1317;22621;-73
2022/10/12 09:44:18;;;;;;;14.30;5.90;;;;;;;11.76;72.77;99441.05;102471;1293;22507;-70
2022/10/12 09:46:53;;;;;;;12.20;5.70;;;;;;;11.86;72.32;99444.20;102286;1317;138194;-70
2022/10/12 09:49:20;;;;;;;13.40;6.30;;;;;;;11.95;71.80;99440.64;102436;1316;24135;-69
2022/10/12 09:51:58;;;;;;;12.50;5.20;;;;;;;12.04;71.65;99441.45;102803;1310;138465;-70
2022/10/12 09:54:26;;;;;;;11.80;5.70;;;;;;;12.15;71.19;99443.02;102944;1290;25285;-69
2022/10/12 09:56:54;;;;;;;11.20;5.20;;;;;;;12.22;70.83;99443.43;102788;1310;138312;-70
2022/10/12 09:59:29;;;;;;;13.90;5.10;;;;;;;12.29;70.48;99444.60;102933;1298;25235;-69
2022/10/12 10:02:18;;;;;;;10.80;4.90;;;;;;;12.38;70.27;99438.84;102945;1301;24061;-73
2022/10/12 10:04:47;;;;;;;12.20;6.50;;;;;;;12.40;69.18;99436.13;102806;1310;137632;-73
2022/10/12 10:07:23;;;;;;;15.80;6.40;;;;;;;12.46;69.29;99435.30;102948;1285;24305;-75
2022/10/12 10:10:29;;;;;;;14.50;6.10;;;;;;;12.58;69.29;99431.42;102846;1310;137312;-70
2022/10/12 10:13:00;;;;;;;14.00;4.20;;;;;;;12.73;68.29;99429.14;102175;1291;25336;-71
2022/10/12 10:15:33;;;;;;;9.90;3.50;;;;;;;12.84;67.46;99424.82;102113;1310;137721;-69
2022/10/12 10:18:19;;;;;;;12.50;4.40;;;;;;;12.94;65.80;99419.48;102148;1293;22488;-71
2022/10/12 10:20:57;;;;;;;15.10;4.80;;;;;;;13.02;65.30;99416.83;102112;1303;22604;-71
2022/10/12 10:23:33;;;;;;;6.70;3.90;;;;;;;13.13;65.62;99416.30;102207;1310;22483;-70
2022/10/12 10:26:00;;;;;;;12.90;4.60;;;;;;;13.25;65.42;99422.60;102129;1296;25297;-69
2022/10/12 10:28:30;;;;;;;8.80;4.30;;;;;;;13.35;64.63;99418.09;101994;1318;137470;-69
2022/10/12 10:31:04;;;;;;;11.00;2.70;;;;;;;13.39;64.14;99420.38;102198;1318;25404;-70
2022/10/12 10:33:35;;;;;;;8.90;2.70;;;;;;;13.50;63.56;99419.89;102047;1297;137744;-69
2022/10/12 10:36:21;;;;;;;6.70;2.50;;;;;;;13.62;63.39;99418.90;102134;1299;25239;-70
2022/10/12 10:38:56;;;;;;;16.20;4.40;;;;;;;13.72;63.68;99416.20;102190;1318;22638;-70
2022/10/12 10:41:34;;;;;;;14.20;4.60;;;;;;;13.82;63.28;99412.68;102267;1317;24584;-69
2022/10/12 10:44:02;;;;;;;19.00;5.00;;;;;;;13.91;62.83;99409.88;102501;1310;24275;-70
2022/10/12 10:46:33;;;;;;;9.40;3.60;;;;;;;14.02;62.63;99412.20;102903;1284;137454;-71
2022/10/12 10:49:05;;;;;;;12.60;3.90;;;;;;;14.12;61.49;99412.20;102941;1310;22615;-69
2022/10/12 10:51:41;;;;;;;7.90;3.20;;;;;;;14.19;60.65;99410.06;102993;1304;137555;-73
2022/10/12 10:54:14;;;;;;;8.60;4.20;;;;;;;14.25;61.12;99406.77;102910;1310;24480;-73
2022/10/12 10:56:45;;;;;;;6.80;1.90;;;;;;;14.33;59.70;99402.98;103049;1309;24258;-71
2022/10/12 10:59:27;;;;;;;6.10;2.30;;;;;;;14.38;59.27;99404.34;102788;1303;137155;-73
2022/10/12 11:01:59;;;;;;;3.90;1.50;;;;;;;14.46;58.68;99400.14;102998;1310;25803;-72
2022/10/12 11:04:40;;;;;;;5.60;1.50;;;;;;;14.51;57.67;99396.45;102874;1294;137441;-71
2022/10/12 11:07:17;;;;;;;7.90;1.60;;;;;;;14.57;57.31;99396.45;102942;1310;22511;-71
2022/10/12 11:09:50;;;;;;;6.10;1.60;;;;;;;14.65;57.62;99397.38;102815;1310;137773;-70
2022/10/12 11:12:25;;;;;;;6.20;1.60;;;;;;;14.72;57.29;99402.20;102954;1304;24869;-70
2022/10/12 11:15:25;;;;;;;4.50;1.30;;;;;;;14.77;56.33;99398.61;102903;1288;22468;-69
2022/10/12 11:18:01;;;;;;;7.20;1.90;;;;;;;14.88;56.76;99398.29;101997;1318;24336;-70
2022/10/12 11:20:54;;;;;;;6.00;2.10;;;;;;;14.96;56.93;99392.05;102057;1309;22530;-69
2022/10/12 11:23:47;;;;;;;4.50;2.20;;;;;;;15.05;56.70;99396.08;102029;1318;137477;-70
2022/10/12 11:26:39;;;;;;;4.40;1.70;;;;;;;15.10;56.15;99397.38;102172;1303;22501;-71
2022/10/12 11:29:14;;;;;;;3.90;1.70;;;;;;;15.15;56.15;99391.52;102056;1319;137266;-70
2022/10/12 11:31:55;;;;;;;8.00;1.70;;;;;;;15.20;56.09;99390.60;102111;1318;22498;-70
2022/10/12 11:34:25;;;;;;;6.30;2.30;;;;;;;15.27;55.85;99390.70;102067;1304;137229;-71
2022/10/12 11:36:54;;;;;;;6.00;2.20;;;;;;;15.34;56.20;99389.80;102164;1314;22600;-70
2022/10/12 11:39:21;;;;;;;6.40;1.90;;;;;;;15.37;54.79;99385.23;102048;1301;137450;-69
2022/10/12 11:41:53;;;;;;;6.50;1.90;;;;;;;15.35;55.02;99383.95;102190;1312;24435;-74